createdAt,value
2023-02-14T00:01:23.849Z,1.80
2023-02-14T00:03:51.059Z,1.27
2023-02-14T00:06:18.630Z,1.95
2023-02-14T00:08:46.064Z,1.15
2023-02-14T00:11:14.117Z,1.05
2023-02-14T00:14:01.661Z,1.38
2023-02-14T00:16:28.845Z,1.20
2023-02-14T00:19:05.944Z,1.38
2023-02-14T00:21:37.783Z,1.27
2023-02-14T00:24:08.328Z,3.03
2023-02-14T00:26:38.542Z,1.52
2023-02-14T00:29:11.920Z,1.10
2023-02-14T00:31:40.866Z,1.25
2023-02-14T00:34:08.665Z,1.52
2023-02-14T00:36:36.184Z,1.38
2023-02-14T00:39:08.163Z,2.05
2023-02-14T00:41:35.931Z,1.90
2023-02-14T00:44:04.005Z,1.58
2023-02-14T00:46:31.311Z,1.58
2023-02-14T00:48:58.902Z,1.63
2023-02-14T00:51:26.512Z,1.17
2023-02-14T00:53:54.262Z,1.45
2023-02-14T00:56:21.802Z,2.25
2023-02-14T00:58:49.194Z,2.55
2023-02-14T01:01:17.825Z,2.60
2023-02-14T01:03:45.159Z,2.10
2023-02-14T01:06:13.896Z,3.17
2023-02-14T01:08:41.134Z,3.65
2023-02-14T01:11:17.891Z,3.70
2023-02-14T01:13:45.082Z,4.25
2023-02-14T01:16:15.046Z,3.95
2023-02-14T01:18:42.968Z,3.90
2023-02-14T01:21:16.312Z,3.78
2023-02-14T01:23:44.544Z,4.47
2023-02-14T01:26:12.677Z,5.72
2023-02-14T01:28:40.043Z,6.97
2023-02-14T01:31:10.852Z,8.13
2023-02-14T01:33:38.996Z,8.32
2023-02-14T01:36:07.041Z,9.45
2023-02-14T01:38:34.282Z,9.85
2023-02-14T01:41:01.536Z,9.77
2023-02-14T01:43:29.239Z,8.13
2023-02-14T01:45:56.828Z,9.23
2023-02-14T01:48:25.555Z,7.30
2023-02-14T01:50:54.231Z,6.07
2023-02-14T01:53:27.049Z,3.78
2023-02-14T01:56:05.114Z,2.22
2023-02-14T01:58:36.761Z,2.08
2023-02-14T02:01:05.200Z,1.67
2023-02-14T02:03:40.051Z,1.80
2023-02-14T02:06:16.140Z,1.40
2023-02-14T02:09:19.523Z,2.15
2023-02-14T02:11:46.852Z,1.95
2023-02-14T02:14:17.184Z,2.30
2023-02-14T02:17:28.150Z,4.00
2023-02-14T02:20:10.267Z,3.88
2023-02-14T02:22:43.419Z,4.38
2023-02-14T02:25:55.628Z,7.05
2023-02-14T02:28:41.229Z,6.45
2023-02-14T02:31:14.118Z,4.45
2023-02-14T02:34:02.936Z,2.30
2023-02-14T02:36:47.159Z,1.90
2023-02-14T02:39:45.298Z,1.73
2023-02-14T02:42:35.651Z,1.35
2023-02-14T02:45:27.075Z,1.23
2023-02-14T02:48:17.973Z,2.75
2023-02-14T02:53:58.269Z,1.27
2023-02-14T02:56:47.535Z,2.30
2023-02-14T02:59:20.863Z,1.98
2023-02-14T03:02:16.338Z,3.10
2023-02-14T03:04:53.929Z,4.85
2023-02-14T03:07:43.748Z,5.63
2023-02-14T03:10:22.284Z,5.80
2023-02-14T03:13:03.608Z,7.97
2023-02-14T03:15:58.743Z,10.75
2023-02-14T03:18:53.823Z,10.90
2023-02-14T03:21:29.744Z,11.10
2023-02-14T03:24:30.996Z,12.30
2023-02-14T03:27:01.968Z,12.73
2023-02-14T03:29:35.224Z,13.20
2023-02-14T03:32:27.808Z,12.65
2023-02-14T03:35:10.380Z,11.52
2023-02-14T03:38:00.153Z,12.45
2023-02-14T03:41:01.990Z,12.32
2023-02-14T03:43:33.934Z,13.85
2023-02-14T03:48:36.814Z,10.90
2023-02-14T03:51:06.830Z,9.75
2023-02-14T03:53:37.113Z,7.38
2023-02-14T03:56:09.007Z,4.78
2023-02-14T03:58:41.052Z,4.50
2023-02-14T04:01:20.958Z,4.28
2023-02-14T04:03:49.199Z,4.68
2023-02-14T04:06:21.076Z,5.10
2023-02-14T04:08:48.306Z,6.60
2023-02-14T04:11:15.659Z,6.53
2023-02-14T04:13:42.954Z,7.38
2023-02-14T04:16:10.772Z,8.45
2023-02-14T04:18:56.168Z,8.80
2023-02-14T04:21:23.701Z,8.07
2023-02-14T04:23:50.927Z,11.10
2023-02-14T04:26:18.216Z,9.57
2023-02-14T04:28:45.334Z,9.93
2023-02-14T04:31:12.729Z,11.30
2023-02-14T04:33:40.019Z,10.40
2023-02-14T04:36:07.604Z,10.80
2023-02-14T04:38:34.712Z,11.77
2023-02-14T04:41:02.189Z,10.73
2023-02-14T04:43:29.470Z,6.78
2023-02-14T04:45:56.917Z,3.15
2023-02-14T04:48:24.111Z,3.38
2023-02-14T04:50:55.385Z,2.40
2023-02-14T04:53:23.048Z,2.55
2023-02-14T04:55:50.678Z,2.45
2023-02-14T04:58:18.664Z,2.10
2023-02-14T05:00:47.145Z,2.53
2023-02-14T05:03:14.584Z,3.97
2023-02-14T05:05:41.746Z,3.63
2023-02-14T05:08:09.111Z,2.25
2023-02-14T05:10:36.340Z,2.03
2023-02-14T05:13:03.492Z,1.90
2023-02-14T05:15:30.608Z,1.48
2023-02-14T05:18:01.981Z,3.78
2023-02-14T05:20:32.989Z,3.38
2023-02-14T05:23:03.794Z,2.53
2023-02-14T05:25:31.668Z,2.63
2023-02-14T05:27:58.998Z,2.53
2023-02-14T05:30:28.521Z,2.65
2023-02-14T05:32:55.750Z,3.28
2023-02-14T05:35:25.689Z,3.60
2023-02-14T05:37:53.105Z,5.55
2023-02-14T05:40:20.441Z,7.85
2023-02-14T05:42:48.147Z,8.60
2023-02-14T05:45:15.346Z,9.73
2023-02-14T05:47:42.762Z,9.75
2023-02-14T05:50:10.435Z,9.65
2023-02-14T05:52:37.999Z,7.25
2023-02-14T05:55:05.924Z,6.25
2023-02-14T05:57:33.305Z,4.60
2023-02-14T06:00:00.653Z,5.07
2023-02-14T06:02:27.948Z,7.22
2023-02-14T06:04:55.194Z,9.82
2023-02-14T06:07:22.890Z,12.70
2023-02-14T06:09:50.150Z,15.95
2023-02-14T06:12:17.330Z,15.23
2023-02-14T06:14:45.234Z,15.50
2023-02-14T06:17:15.288Z,13.95
2023-02-14T06:19:43.543Z,10.65
2023-02-14T06:22:13.263Z,10.60
2023-02-14T06:24:41.314Z,10.68
2023-02-14T06:27:08.749Z,12.93
2023-02-14T06:29:36.004Z,13.05
2023-02-14T06:32:19.410Z,14.45
2023-02-14T06:34:54.533Z,13.63
2023-02-14T06:37:27.857Z,12.65
2023-02-14T06:39:57.670Z,13.60
2023-02-14T06:42:39.271Z,11.68
2023-02-14T06:45:19.480Z,10.55
2023-02-14T06:47:52.813Z,8.65
2023-02-14T06:50:23.481Z,7.28
2023-02-14T06:52:53.481Z,6.65
2023-02-14T06:55:20.686Z,5.75
2023-02-14T06:57:48.251Z,4.05
2023-02-14T07:00:23.035Z,4.18
2023-02-14T07:02:50.532Z,3.70
2023-02-14T07:05:24.272Z,3.38
2023-02-14T07:07:55.499Z,2.65
2023-02-14T07:10:23.015Z,2.20
2023-02-14T07:12:50.603Z,3.78
2023-02-14T07:15:18.507Z,4.13
2023-02-14T07:17:56.893Z,4.03
2023-02-14T07:20:42.068Z,3.53
2023-02-14T07:23:13.061Z,5.40
2023-02-14T07:25:48.883Z,6.00
2023-02-14T07:28:20.033Z,5.55
2023-02-14T07:30:51.095Z,5.05
2023-02-14T07:33:22.020Z,2.67
2023-02-14T07:35:56.850Z,2.60
2023-02-14T07:38:38.033Z,2.55
2023-02-14T07:41:10.520Z,2.63
2023-02-14T07:43:40.266Z,2.00
2023-02-14T07:46:17.186Z,2.22
2023-02-14T07:48:44.946Z,1.42
2023-02-14T07:51:22.352Z,1.52
2023-02-14T07:53:59.445Z,1.08
2023-02-14T07:56:30.599Z,1.75
2023-02-14T07:59:01.127Z,2.00
2023-02-14T08:01:29.024Z,1.65
2023-02-14T08:08:03.837Z,1.90
2023-02-14T08:10:34.197Z,1.73
2023-02-14T08:13:04.849Z,1.85
2023-02-14T08:15:53.244Z,2.00
2023-02-14T08:18:26.246Z,1.60
2023-02-14T08:20:55.538Z,1.40
2023-02-14T08:23:32.101Z,1.85
2023-02-14T08:26:02.242Z,1.50
2023-02-14T08:28:32.464Z,1.17
2023-02-14T08:31:00.149Z,1.50
2023-02-14T08:33:29.521Z,1.33
2023-02-14T08:36:26.940Z,1.35
2023-02-14T08:39:04.520Z,1.30
2023-02-14T08:41:36.236Z,1.73
2023-02-14T08:44:05.404Z,1.17
2023-02-14T08:46:36.148Z,1.30
2023-02-14T08:49:14.486Z,1.27
2023-02-14T08:54:40.161Z,1.60
2023-02-14T08:57:11.512Z,1.33
2023-02-14T08:59:39.075Z,1.13
2023-02-14T09:04:57.460Z,2.13
2023-02-14T09:07:25.489Z,2.65
2023-02-14T09:09:57.842Z,1.67
2023-02-14T09:12:28.206Z,1.67
2023-02-14T09:18:19.954Z,1.67
2023-02-14T09:20:49.460Z,1.05
2023-02-14T09:23:19.614Z,1.13
2023-02-14T09:25:59.060Z,1.83
2023-02-14T09:28:37.848Z,1.52
2023-02-14T09:31:39.684Z,1.35
2023-02-14T09:34:29.339Z,1.60
2023-02-14T09:37:16.431Z,1.50
2023-02-14T09:40:05.016Z,1.73
2023-02-14T09:42:37.996Z,1.20
2023-02-14T09:45:15.662Z,1.40
2023-02-14T09:48:11.040Z,1.35
2023-02-14T09:50:49.076Z,1.10
2023-02-14T09:53:20.809Z,1.15
2023-02-14T09:59:09.943Z,1.88
2023-02-14T10:02:26.407Z,1.52
2023-02-14T10:05:22.164Z,1.30
2023-02-14T10:08:24.543Z,1.30
2023-02-14T10:11:07.395Z,1.08
2023-02-14T10:13:52.736Z,1.65
2023-02-14T10:16:33.926Z,1.40
2023-02-14T10:19:21.592Z,1.40
2023-02-14T10:22:10.402Z,1.33
2023-02-14T10:24:48.326Z,1.00
2023-02-14T10:29:59.027Z,0.98
2023-02-14T10:32:31.732Z,0.88
2023-02-14T10:35:03.386Z,2.30
2023-02-14T10:38:09.298Z,1.35
2023-02-14T10:42:08.252Z,1.15
2023-02-14T10:44:39.366Z,1.90
2023-02-14T10:47:28.731Z,1.45
2023-02-14T10:53:38.299Z,2.03
2023-02-14T10:56:21.523Z,1.23
2023-02-14T10:58:58.621Z,1.42
2023-02-14T11:01:28.915Z,1.20
2023-02-14T11:04:10.221Z,1.17
2023-02-14T11:06:38.005Z,2.05
2023-02-14T11:09:05.299Z,1.20
2023-02-14T11:11:50.134Z,1.65
2023-02-14T11:14:33.268Z,1.40
2023-02-14T11:17:20.002Z,2.00
2023-02-14T11:19:58.545Z,1.25
2023-02-14T11:22:34.811Z,1.20
2023-02-14T11:25:28.542Z,1.25
2023-02-14T11:28:08.074Z,1.23
2023-02-14T11:31:05.610Z,1.42
2023-02-14T11:33:50.974Z,1.80
2023-02-14T11:36:18.889Z,2.38
2023-02-14T11:38:48.476Z,1.80
2023-02-14T11:41:20.414Z,2.00
2023-02-14T11:43:59.745Z,1.30
2023-02-14T11:46:28.710Z,1.50
2023-02-14T11:49:02.401Z,2.03
2023-02-14T11:51:45.504Z,1.15
2023-02-14T11:54:59.743Z,2.95
2023-02-14T11:57:34.701Z,4.00
2023-02-14T12:00:08.625Z,4.10
2023-02-14T12:02:44.605Z,8.90
2023-02-14T12:05:31.437Z,9.52
2023-02-14T12:08:06.925Z,8.70
2023-02-14T12:11:22.516Z,9.05
2023-02-14T12:13:58.706Z,4.13
2023-02-14T12:17:06.754Z,5.25
2023-02-14T12:19:55.573Z,3.47
2023-02-14T12:22:57.525Z,2.17
2023-02-14T12:25:45.634Z,2.90
2023-02-14T12:28:28.152Z,2.30
2023-02-14T12:30:55.799Z,1.80
2023-02-14T12:33:26.353Z,2.13
2023-02-14T12:36:25.109Z,1.75
2023-02-14T12:39:50.885Z,1.77
2023-02-14T12:42:38.533Z,1.35
2023-02-14T12:45:35.237Z,1.40
2023-02-14T12:48:21.535Z,1.55
2023-02-14T12:51:10.636Z,1.65
2023-02-14T12:54:22.205Z,1.30
2023-02-14T12:57:31.750Z,1.73
2023-02-14T13:00:23.292Z,2.17
2023-02-14T13:03:19.779Z,1.65
2023-02-14T13:06:14.509Z,2.22
2023-02-14T13:08:54.106Z,3.75
2023-02-14T13:11:46.430Z,11.90
2023-02-14T13:14:41.048Z,10.38
2023-02-14T13:17:35.023Z,15.27
2023-02-14T13:20:39.491Z,16.15
2023-02-14T13:23:46.227Z,16.15
2023-02-14T13:26:22.087Z,15.20
2023-02-14T13:29:01.602Z,10.70
2023-02-14T13:31:29.406Z,9.88
2023-02-14T13:34:31.608Z,5.30
2023-02-14T13:37:01.016Z,4.85
2023-02-14T13:39:38.035Z,3.70
2023-02-14T13:42:07.183Z,2.33
2023-02-14T13:44:49.253Z,1.80
2023-02-14T13:47:27.471Z,1.38
2023-02-14T13:49:59.955Z,1.75
2023-02-14T13:52:53.804Z,1.25
2023-02-14T13:55:35.308Z,0.77
2023-02-14T13:58:07.777Z,1.55
2023-02-14T14:00:39.297Z,0.60
2023-02-14T14:03:08.119Z,0.80
2023-02-14T14:05:49.044Z,1.17
2023-02-14T14:08:23.723Z,0.98
2023-02-14T14:11:03.872Z,1.15
2023-02-14T14:13:40.744Z,1.08
2023-02-14T14:16:28.281Z,1.35
2023-02-14T14:19:07.737Z,1.13
2023-02-14T14:21:39.208Z,1.02
2023-02-14T14:24:27.923Z,1.23
2023-02-14T14:27:38.246Z,1.10
2023-02-14T14:30:25.334Z,1.00
2023-02-14T14:32:54.360Z,1.80
2023-02-14T14:35:24.263Z,6.32
2023-02-14T14:38:01.197Z,2.42
2023-02-14T14:40:45.417Z,1.40
2023-02-14T14:43:22.723Z,1.08
2023-02-14T14:45:53.046Z,1.13
2023-02-14T14:48:45.916Z,1.83
2023-02-14T14:51:34.961Z,1.50
2023-02-14T14:54:04.274Z,1.98
2023-02-14T15:00:21.137Z,1.40
2023-02-14T15:03:07.294Z,1.20
2023-02-14T15:05:42.797Z,1.92
2023-02-14T15:08:25.108Z,2.08
2023-02-14T15:11:06.240Z,3.92
2023-02-14T15:13:49.813Z,4.60
2023-02-14T15:16:32.601Z,5.43
2023-02-14T15:19:19.462Z,6.53
2023-02-14T15:21:50.924Z,7.35
2023-02-14T15:24:20.025Z,6.68
2023-02-14T15:26:49.048Z,6.45
2023-02-14T15:29:34.548Z,6.60
2023-02-14T15:32:05.966Z,5.93
2023-02-14T15:37:26.347Z,5.50
2023-02-14T15:40:03.709Z,6.40
2023-02-14T15:42:34.261Z,4.32
2023-02-14T15:45:24.637Z,5.78
2023-02-14T15:48:03.081Z,6.95
2023-02-14T15:50:33.926Z,6.60
2023-02-14T15:53:28.758Z,8.40
2023-02-14T15:56:22.174Z,9.13
2023-02-14T15:58:50.031Z,8.23
2023-02-14T16:01:21.997Z,7.25
2023-02-14T16:03:57.532Z,8.02
2023-02-14T16:06:44.965Z,7.95
2023-02-14T16:09:35.956Z,7.75
2023-02-14T16:15:23.410Z,8.05
2023-02-14T16:17:53.795Z,7.00
2023-02-14T16:20:29.462Z,6.13
2023-02-14T16:23:17.836Z,6.85
2023-02-14T16:25:46.042Z,6.45
2023-02-14T16:28:13.877Z,6.78
2023-02-14T16:30:47.347Z,6.07
2023-02-14T16:33:22.431Z,6.75
2023-02-14T16:35:53.585Z,7.32
2023-02-14T16:38:23.995Z,9.13
2023-02-14T16:40:56.500Z,7.93
2023-02-14T16:43:23.732Z,6.78
2023-02-14T16:45:51.507Z,6.90
2023-02-14T16:48:19.048Z,5.93
2023-02-14T16:50:46.673Z,8.55
2023-02-14T16:53:28.674Z,5.30
2023-02-14T16:55:57.321Z,6.95
2023-02-14T16:58:30.010Z,13.73
2023-02-14T17:01:00.766Z,27.42
2023-02-14T17:03:28.188Z,23.48
2023-02-14T17:06:00.690Z,28.15
2023-02-14T17:08:28.601Z,23.55
2023-02-14T17:11:00.320Z,19.50
2023-02-14T17:13:29.418Z,17.40
2023-02-14T17:16:01.496Z,20.83
2023-02-14T17:18:33.422Z,15.00
2023-02-14T17:21:01.749Z,15.43
2023-02-14T17:23:29.423Z,15.98
2023-02-14T17:25:56.793Z,13.10
2023-02-14T17:28:26.821Z,14.02
2023-02-14T17:30:54.791Z,12.00
2023-02-14T17:33:23.040Z,11.55
2023-02-14T17:35:51.288Z,9.32
2023-02-14T17:38:19.343Z,9.00
2023-02-14T17:40:46.503Z,8.95
2023-02-14T17:43:13.791Z,6.55
2023-02-14T17:45:41.122Z,6.93
2023-02-14T17:48:10.818Z,7.38
2023-02-14T17:50:38.932Z,5.75
2023-02-14T17:53:06.569Z,5.65
2023-02-14T17:55:37.043Z,5.75
2023-02-14T17:58:04.553Z,4.22
2023-02-14T18:00:31.695Z,4.47
2023-02-14T18:02:59.955Z,7.20
2023-02-14T18:05:27.366Z,8.85
2023-02-14T18:07:54.856Z,9.82
2023-02-14T18:10:22.060Z,13.35
2023-02-14T18:12:49.283Z,12.02
2023-02-14T18:15:16.482Z,12.68
2023-02-14T18:17:55.067Z,10.52
2023-02-14T18:20:25.835Z,11.75
2023-02-14T18:22:52.968Z,12.68
2023-02-14T18:25:20.461Z,11.98
2023-02-14T18:27:48.923Z,12.00
2023-02-14T18:30:16.454Z,14.88
2023-02-14T18:32:43.513Z,14.60
2023-02-14T18:35:11.816Z,20.20
2023-02-14T18:37:39.109Z,21.08
2023-02-14T18:40:11.656Z,19.85
2023-02-14T18:42:39.972Z,19.10
2023-02-14T18:45:07.921Z,18.27
2023-02-14T18:47:38.560Z,16.40
2023-02-14T18:50:06.408Z,15.10
2023-02-14T18:52:36.337Z,14.43
2023-02-14T18:55:04.868Z,12.77
2023-02-14T18:57:35.598Z,11.88
2023-02-14T19:00:07.104Z,13.50
2023-02-14T19:02:35.434Z,11.50
2023-02-14T19:05:02.667Z,12.13
2023-02-14T19:07:32.133Z,15.23
2023-02-14T19:10:05.455Z,13.20
2023-02-14T19:12:35.925Z,10.93
2023-02-14T19:15:04.082Z,11.77
2023-02-14T19:17:32.621Z,13.95
2023-02-14T19:20:01.228Z,14.35
2023-02-14T19:22:28.574Z,17.73
2023-02-14T19:24:56.027Z,21.95
2023-02-14T19:27:24.030Z,21.83
2023-02-14T19:29:51.810Z,22.17
2023-02-14T19:32:19.058Z,26.95
2023-02-14T19:34:46.348Z,20.58
2023-02-14T19:37:13.832Z,21.30
2023-02-14T19:39:41.207Z,23.50
2023-02-14T19:42:08.372Z,24.85
2023-02-14T19:44:38.661Z,28.05
2023-02-14T19:47:18.956Z,22.80
2023-02-14T19:49:53.132Z,30.55
2023-02-14T19:52:27.510Z,23.00
2023-02-14T19:55:00.597Z,23.92
2023-02-14T19:57:27.746Z,27.02
2023-02-14T19:59:55.088Z,24.77
2023-02-14T20:02:23.627Z,29.88
2023-02-14T20:04:50.883Z,25.70
2023-02-14T20:07:18.188Z,36.22
2023-02-14T20:09:48.533Z,26.98
2023-02-14T20:12:15.961Z,27.98
2023-02-14T20:14:51.468Z,29.73
2023-02-14T20:17:19.517Z,32.13
2023-02-14T20:19:47.212Z,29.50
2023-02-14T20:22:14.698Z,29.52
2023-02-14T20:24:42.523Z,24.90
2023-02-14T20:27:14.662Z,26.17
2023-02-14T20:29:45.263Z,28.00
2023-02-14T20:32:16.486Z,30.42
2023-02-14T20:34:43.944Z,29.08
2023-02-14T20:37:14.906Z,27.95
2023-02-14T20:39:43.348Z,27.20
2023-02-14T20:42:11.010Z,27.17
2023-02-14T20:44:38.178Z,29.70
2023-02-14T20:47:07.097Z,29.27
2023-02-14T20:49:35.875Z,28.20
2023-02-14T20:52:03.790Z,24.50
2023-02-14T20:54:30.994Z,26.50
2023-02-14T20:56:58.279Z,25.75
2023-02-14T20:59:28.897Z,30.63
2023-02-14T21:01:58.052Z,26.58
2023-02-14T21:04:25.897Z,22.75
2023-02-14T21:06:53.656Z,26.27
2023-02-14T21:09:20.967Z,28.08
2023-02-14T21:11:48.842Z,29.15
2023-02-14T21:14:19.022Z,26.50
2023-02-14T21:16:46.314Z,31.40
2023-02-14T21:19:13.383Z,30.88
2023-02-14T21:21:41.121Z,29.48
2023-02-14T21:24:11.556Z,29.23
2023-02-14T21:26:39.590Z,27.55
2023-02-14T21:29:07.735Z,28.42
2023-02-14T21:31:35.483Z,26.90
2023-02-14T21:34:05.640Z,28.23
2023-02-14T21:36:37.669Z,28.17
2023-02-14T21:41:35.796Z,23.23
2023-02-14T21:44:03.894Z,21.60
2023-02-14T21:46:33.449Z,23.75
2023-02-14T21:49:24.313Z,21.92
2023-02-14T21:54:19.749Z,18.88
2023-02-14T21:56:47.819Z,20.13
2023-02-14T21:59:14.977Z,19.33
2023-02-14T22:01:43.079Z,18.25
2023-02-14T22:04:12.510Z,18.13
2023-02-14T22:09:46.795Z,16.65
2023-02-14T22:12:20.003Z,15.77
2023-02-14T22:14:47.155Z,16.73
2023-02-14T22:17:19.180Z,17.40
2023-02-14T22:19:48.945Z,17.23
2023-02-14T22:22:16.264Z,14.32
2023-02-14T22:24:46.349Z,14.63
2023-02-14T22:27:13.575Z,15.23
2023-02-14T22:29:43.740Z,18.52
2023-02-14T22:32:11.018Z,16.73
2023-02-14T22:34:38.399Z,15.43
2023-02-14T22:37:05.956Z,16.65
2023-02-14T22:39:33.223Z,13.68
2023-02-14T22:42:07.152Z,14.05
2023-02-14T22:44:34.249Z,14.50
2023-02-14T22:47:01.817Z,17.65
2023-02-14T22:49:28.981Z,13.98
2023-02-14T22:51:56.194Z,14.70
2023-02-14T22:54:24.348Z,12.13
2023-02-14T22:56:51.547Z,12.40
2023-02-14T22:59:22.847Z,13.73
2023-02-14T23:01:54.511Z,13.30
2023-02-14T23:04:23.213Z,13.45
2023-02-14T23:06:52.108Z,11.45
2023-02-14T23:09:20.372Z,10.77
2023-02-14T23:11:48.281Z,10.80
2023-02-14T23:14:38.268Z,13.52
2023-02-14T23:17:26.571Z,10.77
2023-02-14T23:20:12.004Z,10.80
2023-02-14T23:22:51.985Z,10.23
2023-02-14T23:25:19.367Z,11.60
2023-02-14T23:27:49.750Z,13.27
2023-02-14T23:30:18.891Z,15.80
2023-02-14T23:32:46.132Z,13.90
2023-02-14T23:35:13.901Z,11.85
2023-02-14T23:37:41.984Z,13.07
2023-02-14T23:40:10.242Z,13.10
2023-02-14T23:42:37.693Z,13.15
2023-02-14T23:45:24.012Z,12.57
2023-02-14T23:47:51.331Z,12.40
2023-02-14T23:50:18.645Z,11.57
2023-02-14T23:52:46.974Z,11.45
2023-02-14T23:55:14.053Z,12.00
2023-02-14T23:57:48.540Z,13.50
